sensor_id;sensor_type;location;lat;lon;timestamp;P1;durP1;ratioP1;P2;durP2;ratioP2
49592;SDS011;35499;51.482;4.264;2023-12-07T00:02:08;13.97;;;7.57;;
49592;SDS011;35499;51.482;4.264;2023-12-07T00:04:33;14.30;;;8.03;;
49592;SDS011;35499;51.482;4.264;2023-12-07T00:06:58;19.83;;;9.03;;
49592;SDS011;35499;51.482;4.264;2023-12-07T00:09:23;14.37;;;7.73;;
49592;SDS011;35499;51.482;4.264;2023-12-07T00:11:49;12.63;;;7.23;;
49592;SDS011;35499;51.482;4.264;2023-12-07T00:14:14;22.83;;;8.20;;
49592;SDS011;35499;51.482;4.264;2023-12-07T00:16:39;15.27;;;8.32;;
49592;SDS011;35499;51.482;4.264;2023-12-07T00:19:05;11.23;;;4.43;;
49592;SDS011;35499;51.482;4.264;2023-12-07T00:21:30;10.88;;;6.93;;
49592;SDS011;35499;51.482;4.264;2023-12-07T00:23:55;16.50;;;8.13;;
49592;SDS011;35499;51.482;4.264;2023-12-07T00:26:20;14.60;;;7.47;;
49592;SDS011;35499;51.482;4.264;2023-12-07T00:28:46;16.57;;;8.07;;
49592;SDS011;35499;51.482;4.264;2023-12-07T00:31:11;11.60;;;8.17;;
49592;SDS011;35499;51.482;4.264;2023-12-07T00:33:36;13.25;;;6.82;;
49592;SDS011;35499;51.482;4.264;2023-12-07T00:36:02;18.85;;;8.52;;
49592;SDS011;35499;51.482;4.264;2023-12-07T00:38:28;16.80;;;7.82;;
49592;SDS011;35499;51.482;4.264;2023-12-07T00:40:53;16.53;;;7.97;;
49592;SDS011;35499;51.482;4.264;2023-12-07T00:43:19;18.30;;;8.50;;
49592;SDS011;35499;51.482;4.264;2023-12-07T00:45:44;17.80;;;8.70;;
49592;SDS011;35499;51.482;4.264;2023-12-07T00:48:10;14.18;;;6.97;;
49592;SDS011;35499;51.482;4.264;2023-12-07T00:50:35;23.80;;;9.23;;
49592;SDS011;35499;51.482;4.264;2023-12-07T00:53:00;20.43;;;9.30;;
49592;SDS011;35499;51.482;4.264;2023-12-07T00:55:25;16.73;;;7.87;;
49592;SDS011;35499;51.482;4.264;2023-12-07T00:57:51;15.50;;;6.82;;
49592;SDS011;35499;51.482;4.264;2023-12-07T01:00:17;17.30;;;8.73;;
49592;SDS011;35499;51.482;4.264;2023-12-07T01:02:42;101.53;;;20.83;;
49592;SDS011;35499;51.482;4.264;2023-12-07T01:05:07;130.80;;;16.60;;
49592;SDS011;35499;51.482;4.264;2023-12-07T01:07:33;93.30;;;14.85;;
49592;SDS011;35499;51.482;4.264;2023-12-07T01:09:59;73.73;;;12.33;;
49592;SDS011;35499;51.482;4.264;2023-12-07T01:12:24;74.07;;;11.10;;
49592;SDS011;35499;51.482;4.264;2023-12-07T01:14:49;96.77;;;14.47;;
49592;SDS011;35499;51.482;4.264;2023-12-07T01:17:14;49.00;;;11.30;;
49592;SDS011;35499;51.482;4.264;2023-12-07T01:19:40;55.03;;;10.33;;
49592;SDS011;35499;51.482;4.264;2023-12-07T01:22:05;58.87;;;12.07;;
49592;SDS011;35499;51.482;4.264;2023-12-07T01:24:30;50.87;;;10.40;;
49592;SDS011;35499;51.482;4.264;2023-12-07T01:26:55;38.00;;;5.90;;
49592;SDS011;35499;51.482;4.264;2023-12-07T01:29:21;40.23;;;8.40;;
49592;SDS011;35499;51.482;4.264;2023-12-07T01:31:46;36.77;;;8.30;;
49592;SDS011;35499;51.482;4.264;2023-12-07T01:34:11;75.68;;;9.98;;
49592;SDS011;35499;51.482;4.264;2023-12-07T01:36:37;55.77;;;9.47;;
49592;SDS011;35499;51.482;4.264;2023-12-07T01:39:02;98.30;;;10.83;;
49592;SDS011;35499;51.482;4.264;2023-12-07T01:41:28;93.43;;;10.30;;
49592;SDS011;35499;51.482;4.264;2023-12-07T01:43:53;57.72;;;9.52;;
49592;SDS011;35499;51.482;4.264;2023-12-07T01:46:19;39.78;;;5.82;;
49592;SDS011;35499;51.482;4.264;2023-12-07T01:48:44;65.88;;;9.13;;
49592;SDS011;35499;51.482;4.264;2023-12-07T01:51:14;22.58;;;6.55;;
49592;SDS011;35499;51.482;4.264;2023-12-07T01:53:39;60.47;;;9.05;;
49592;SDS011;35499;51.482;4.264;2023-12-07T01:56:05;67.28;;;12.30;;
49592;SDS011;35499;51.482;4.264;2023-12-07T02:00:57;61.33;;;8.40;;
49592;SDS011;35499;51.482;4.264;2023-12-07T02:03:23;120.78;;;16.45;;
49592;SDS011;35499;51.482;4.264;2023-12-07T02:05:48;96.35;;;15.52;;
49592;SDS011;35499;51.482;4.264;2023-12-07T02:08:14;79.57;;;13.98;;
49592;SDS011;35499;51.482;4.264;2023-12-07T02:10:40;106.53;;;14.70;;
49592;SDS011;35499;51.482;4.264;2023-12-07T02:13:06;127.10;;;16.20;;
49592;SDS011;35499;51.482;4.264;2023-12-07T02:15:32;92.05;;;14.18;;
49592;SDS011;35499;51.482;4.264;2023-12-07T02:23:14;109.28;;;17.70;;
49592;SDS011;35499;51.482;4.264;2023-12-07T02:25:51;83.15;;;15.10;;
49592;SDS011;35499;51.482;4.264;2023-12-07T02:28:17;92.72;;;15.85;;
49592;SDS011;35499;51.482;4.264;2023-12-07T02:30:42;76.85;;;14.80;;
49592;SDS011;35499;51.482;4.264;2023-12-07T02:33:08;117.30;;;18.73;;
49592;SDS011;35499;51.482;4.264;2023-12-07T02:35:34;86.30;;;13.63;;
49592;SDS011;35499;51.482;4.264;2023-12-07T02:38:00;99.93;;;15.68;;
49592;SDS011;35499;51.482;4.264;2023-12-07T02:40:27;54.25;;;13.70;;
49592;SDS011;35499;51.482;4.264;2023-12-07T02:42:53;75.68;;;13.32;;
49592;SDS011;35499;51.482;4.264;2023-12-07T02:45:19;108.35;;;16.95;;
49592;SDS011;35499;51.482;4.264;2023-12-07T02:47:45;80.15;;;13.63;;
49592;SDS011;35499;51.482;4.264;2023-12-07T02:50:11;76.22;;;15.63;;
49592;SDS011;35499;51.482;4.264;2023-12-07T02:52:37;87.80;;;15.77;;
49592;SDS011;35499;51.482;4.264;2023-12-07T02:55:02;35.67;;;9.00;;
49592;SDS011;35499;51.482;4.264;2023-12-07T02:57:28;127.57;;;15.38;;
49592;SDS011;35499;51.482;4.264;2023-12-07T02:59:54;58.72;;;12.48;;
49592;SDS011;35499;51.482;4.264;2023-12-07T03:02:20;93.55;;;12.52;;
49592;SDS011;35499;51.482;4.264;2023-12-07T03:04:45;138.80;;;18.60;;
49592;SDS011;35499;51.482;4.264;2023-12-07T03:07:11;102.30;;;14.40;;
49592;SDS011;35499;51.482;4.264;2023-12-07T03:09:36;83.67;;;14.63;;
49592;SDS011;35499;51.482;4.264;2023-12-07T03:12:01;91.40;;;15.40;;
49592;SDS011;35499;51.482;4.264;2023-12-07T03:14:27;91.37;;;14.70;;
49592;SDS011;35499;51.482;4.264;2023-12-07T03:16:52;82.67;;;14.67;;
49592;SDS011;35499;51.482;4.264;2023-12-07T03:19:17;39.00;;;10.70;;
49592;SDS011;35499;51.482;4.264;2023-12-07T03:21:42;46.60;;;12.00;;
49592;SDS011;35499;51.482;4.264;2023-12-07T03:24:08;38.40;;;10.25;;
49592;SDS011;35499;51.482;4.264;2023-12-07T03:26:34;37.20;;;10.13;;
49592;SDS011;35499;51.482;4.264;2023-12-07T03:29:00;36.92;;;9.57;;
49592;SDS011;35499;51.482;4.264;2023-12-07T03:31:25;72.45;;;13.68;;
49592;SDS011;35499;51.482;4.264;2023-12-07T03:33:51;57.80;;;12.13;;
49592;SDS011;35499;51.482;4.264;2023-12-07T03:36:16;66.63;;;12.10;;
49592;SDS011;35499;51.482;4.264;2023-12-07T03:38:42;69.25;;;13.77;;
49592;SDS011;35499;51.482;4.264;2023-12-07T03:41:07;63.17;;;14.02;;
49592;SDS011;35499;51.482;4.264;2023-12-07T03:43:33;65.13;;;13.35;;
49592;SDS011;35499;51.482;4.264;2023-12-07T03:45:58;66.90;;;13.20;;
49592;SDS011;35499;51.482;4.264;2023-12-07T03:48:23;85.60;;;13.93;;
49592;SDS011;35499;51.482;4.264;2023-12-07T03:50:49;97.73;;;18.03;;
49592;SDS011;35499;51.482;4.264;2023-12-07T03:53:14;105.70;;;16.23;;
49592;SDS011;35499;51.482;4.264;2023-12-07T03:55:39;101.00;;;18.90;;
49592;SDS011;35499;51.482;4.264;2023-12-07T03:58:04;96.33;;;14.70;;
49592;SDS011;35499;51.482;4.264;2023-12-07T04:00:31;93.32;;;17.27;;
49592;SDS011;35499;51.482;4.264;2023-12-07T04:02:57;86.18;;;15.27;;
49592;SDS011;35499;51.482;4.264;2023-12-07T04:05:22;93.43;;;15.30;;
49592;SDS011;35499;51.482;4.264;2023-12-07T04:07:48;85.90;;;16.03;;
49592;SDS011;35499;51.482;4.264;2023-12-07T04:10:13;102.07;;;18.13;;
49592;SDS011;35499;51.482;4.264;2023-12-07T04:12:38;68.50;;;16.10;;
49592;SDS011;35499;51.482;4.264;2023-12-07T04:15:04;65.67;;;14.77;;
49592;SDS011;35499;51.482;4.264;2023-12-07T04:17:29;98.43;;;18.60;;
49592;SDS011;35499;51.482;4.264;2023-12-07T04:19:54;81.97;;;17.87;;
49592;SDS011;35499;51.482;4.264;2023-12-07T04:22:20;84.33;;;17.60;;
49592;SDS011;35499;51.482;4.264;2023-12-07T04:24:45;79.63;;;20.67;;
49592;SDS011;35499;51.482;4.264;2023-12-07T04:27:10;58.97;;;14.47;;
49592;SDS011;35499;51.482;4.264;2023-12-07T04:29:35;65.40;;;15.80;;
49592;SDS011;35499;51.482;4.264;2023-12-07T04:32:01;70.43;;;18.10;;
49592;SDS011;35499;51.482;4.264;2023-12-07T04:34:27;64.07;;;15.50;;
49592;SDS011;35499;51.482;4.264;2023-12-07T04:36:52;72.97;;;19.15;;
49592;SDS011;35499;51.482;4.264;2023-12-07T04:39:18;83.72;;;20.35;;
49592;SDS011;35499;51.482;4.264;2023-12-07T04:41:43;57.93;;;14.97;;
49592;SDS011;35499;51.482;4.264;2023-12-07T04:44:08;76.17;;;19.77;;
49592;SDS011;35499;51.482;4.264;2023-12-07T04:46:33;65.73;;;16.23;;
49592;SDS011;35499;51.482;4.264;2023-12-07T04:49:00;67.78;;;18.60;;
49592;SDS011;35499;51.482;4.264;2023-12-07T04:51:26;49.67;;;14.80;;
49592;SDS011;35499;51.482;4.264;2023-12-07T04:53:51;52.80;;;14.23;;
49592;SDS011;35499;51.482;4.264;2023-12-07T04:56:16;21.23;;;7.13;;
49592;SDS011;35499;51.482;4.264;2023-12-07T04:58:41;44.57;;;15.33;;
49592;SDS011;35499;51.482;4.264;2023-12-07T05:01:07;59.77;;;16.63;;
49592;SDS011;35499;51.482;4.264;2023-12-07T05:03:32;49.03;;;12.63;;
49592;SDS011;35499;51.482;4.264;2023-12-07T05:05:57;52.20;;;14.93;;
49592;SDS011;35499;51.482;4.264;2023-12-07T05:08:23;34.20;;;9.57;;
49592;SDS011;35499;51.482;4.264;2023-12-07T05:10:48;39.43;;;12.77;;
49592;SDS011;35499;51.482;4.264;2023-12-07T05:13:13;37.00;;;11.97;;
49592;SDS011;35499;51.482;4.264;2023-12-07T05:15:38;56.20;;;14.23;;
49592;SDS011;35499;51.482;4.264;2023-12-07T05:18:04;40.03;;;11.47;;
49592;SDS011;35499;51.482;4.264;2023-12-07T05:20:29;45.20;;;14.45;;
49592;SDS011;35499;51.482;4.264;2023-12-07T05:22:55;55.88;;;14.52;;
49592;SDS011;35499;51.482;4.264;2023-12-07T05:25:20;58.73;;;15.73;;
49592;SDS011;35499;51.482;4.264;2023-12-07T05:27:46;46.13;;;13.87;;
49592;SDS011;35499;51.482;4.264;2023-12-07T05:30:11;43.27;;;12.73;;
49592;SDS011;35499;51.482;4.264;2023-12-07T05:32:37;41.25;;;12.63;;
49592;SDS011;35499;51.482;4.264;2023-12-07T05:35:03;29.98;;;10.50;;
49592;SDS011;35499;51.482;4.264;2023-12-07T05:37:28;37.35;;;11.00;;
49592;SDS011;35499;51.482;4.264;2023-12-07T05:39:54;52.57;;;15.63;;
49592;SDS011;35499;51.482;4.264;2023-12-07T05:42:19;56.53;;;16.40;;
49592;SDS011;35499;51.482;4.264;2023-12-07T05:44:44;44.77;;;12.17;;
49592;SDS011;35499;51.482;4.264;2023-12-07T05:47:10;46.47;;;13.20;;
49592;SDS011;35499;51.482;4.264;2023-12-07T05:49:35;29.23;;;7.38;;
49592;SDS011;35499;51.482;4.264;2023-12-07T05:52:00;29.92;;;9.90;;
49592;SDS011;35499;51.482;4.264;2023-12-07T05:54:26;25.73;;;9.25;;
49592;SDS011;35499;51.482;4.264;2023-12-07T05:56:52;40.57;;;11.67;;
49592;SDS011;35499;51.482;4.264;2023-12-07T05:59:17;52.23;;;14.20;;
49592;SDS011;35499;51.482;4.264;2023-12-07T06:01:42;36.23;;;9.23;;
49592;SDS011;35499;51.482;4.264;2023-12-07T06:04:08;36.25;;;11.30;;
49592;SDS011;35499;51.482;4.264;2023-12-07T06:06:34;25.33;;;7.63;;
49592;SDS011;35499;51.482;4.264;2023-12-07T06:08:59;40.57;;;9.50;;
49592;SDS011;35499;51.482;4.264;2023-12-07T06:11:25;41.03;;;11.20;;
49592;SDS011;35499;51.482;4.264;2023-12-07T06:13:50;39.90;;;12.70;;
49592;SDS011;35499;51.482;4.264;2023-12-07T06:16:15;42.80;;;11.60;;
49592;SDS011;35499;51.482;4.264;2023-12-07T06:18:42;32.65;;;10.07;;
49592;SDS011;35499;51.482;4.264;2023-12-07T06:21:08;26.42;;;9.70;;
49592;SDS011;35499;51.482;4.264;2023-12-07T06:23:33;45.87;;;11.10;;
49592;SDS011;35499;51.482;4.264;2023-12-07T06:25:59;39.03;;;10.38;;
49592;SDS011;35499;51.482;4.264;2023-12-07T06:28:24;37.45;;;12.60;;
49592;SDS011;35499;51.482;4.264;2023-12-07T06:30:49;33.13;;;9.47;;
49592;SDS011;35499;51.482;4.264;2023-12-07T06:33:15;24.57;;;9.27;;
49592;SDS011;35499;51.482;4.264;2023-12-07T06:35:40;16.60;;;6.43;;
49592;SDS011;35499;51.482;4.264;2023-12-07T06:38:05;25.83;;;9.33;;
49592;SDS011;35499;51.482;4.264;2023-12-07T06:40:31;27.98;;;8.43;;
49592;SDS011;35499;51.482;4.264;2023-12-07T06:42:56;27.75;;;9.25;;
49592;SDS011;35499;51.482;4.264;2023-12-07T06:45:22;28.38;;;9.20;;
49592;SDS011;35499;51.482;4.264;2023-12-07T06:47:47;25.67;;;8.93;;
49592;SDS011;35499;51.482;4.264;2023-12-07T06:50:12;25.05;;;9.93;;
49592;SDS011;35499;51.482;4.264;2023-12-07T06:52:38;32.87;;;10.73;;
49592;SDS011;35499;51.482;4.264;2023-12-07T06:55:04;27.95;;;9.77;;
49592;SDS011;35499;51.482;4.264;2023-12-07T06:57:30;24.92;;;8.38;;
49592;SDS011;35499;51.482;4.264;2023-12-07T06:59:55;16.47;;;5.97;;
49592;SDS011;35499;51.482;4.264;2023-12-07T07:02:21;12.82;;;5.85;;
49592;SDS011;35499;51.482;4.264;2023-12-07T07:04:47;30.90;;;10.80;;
49592;SDS011;35499;51.482;4.264;2023-12-07T07:07:14;29.65;;;8.55;;
49592;SDS011;35499;51.482;4.264;2023-12-07T07:09:39;24.75;;;9.75;;
49592;SDS011;35499;51.482;4.264;2023-12-07T07:12:05;31.07;;;9.90;;
49592;SDS011;35499;51.482;4.264;2023-12-07T07:14:30;20.05;;;6.75;;
49592;SDS011;35499;51.482;4.264;2023-12-07T07:16:55;22.97;;;7.97;;
49592;SDS011;35499;51.482;4.264;2023-12-07T07:19:20;18.70;;;7.77;;
49592;SDS011;35499;51.482;4.264;2023-12-07T07:21:46;18.97;;;6.93;;
49592;SDS011;35499;51.482;4.264;2023-12-07T07:24:11;29.80;;;11.90;;
49592;SDS011;35499;51.482;4.264;2023-12-07T07:26:37;29.25;;;9.23;;
49592;SDS011;35499;51.482;4.264;2023-12-07T07:29:02;23.27;;;8.37;;
49592;SDS011;35499;51.482;4.264;2023-12-07T07:31:28;27.20;;;10.10;;
49592;SDS011;35499;51.482;4.264;2023-12-07T07:33:55;30.45;;;11.90;;
49592;SDS011;35499;51.482;4.264;2023-12-07T07:36:20;19.10;;;7.23;;
49592;SDS011;35499;51.482;4.264;2023-12-07T07:38:45;25.13;;;10.60;;
49592;SDS011;35499;51.482;4.264;2023-12-07T07:41:10;22.17;;;8.47;;
49592;SDS011;35499;51.482;4.264;2023-12-07T07:43:37;22.38;;;8.68;;
49592;SDS011;35499;51.482;4.264;2023-12-07T07:46:05;19.23;;;7.57;;
49592;SDS011;35499;51.482;4.264;2023-12-07T07:48:31;20.90;;;8.23;;
49592;SDS011;35499;51.482;4.264;2023-12-07T07:50:56;24.23;;;9.63;;
49592;SDS011;35499;51.482;4.264;2023-12-07T07:53:23;28.92;;;9.88;;
49592;SDS011;35499;51.482;4.264;2023-12-07T07:55:48;19.58;;;6.35;;
49592;SDS011;35499;51.482;4.264;2023-12-07T07:58:14;22.77;;;9.17;;
49592;SDS011;35499;51.482;4.264;2023-12-07T08:00:39;31.77;;;11.40;;
49592;SDS011;35499;51.482;4.264;2023-12-07T08:03:04;21.63;;;7.73;;
49592;SDS011;35499;51.482;4.264;2023-12-07T08:05:30;22.92;;;9.45;;
49592;SDS011;35499;51.482;4.264;2023-12-07T08:07:55;25.60;;;10.43;;
49592;SDS011;35499;51.482;4.264;2023-12-07T08:10:21;27.00;;;11.03;;
49592;SDS011;35499;51.482;4.264;2023-12-07T08:12:46;25.30;;;10.40;;
49592;SDS011;35499;51.482;4.264;2023-12-07T08:15:11;28.17;;;11.77;;
49592;SDS011;35499;51.482;4.264;2023-12-07T08:17:40;25.73;;;9.15;;
49592;SDS011;35499;51.482;4.264;2023-12-07T08:20:07;21.42;;;8.77;;
49592;SDS011;35499;51.482;4.264;2023-12-07T08:22:35;28.08;;;10.75;;
49592;SDS011;35499;51.482;4.264;2023-12-07T08:25:01;33.20;;;12.60;;
49592;SDS011;35499;51.482;4.264;2023-12-07T08:27:27;10.77;;;4.65;;
49592;SDS011;35499;51.482;4.264;2023-12-07T08:29:52;28.20;;;11.10;;
49592;SDS011;35499;51.482;4.264;2023-12-07T08:32:17;23.83;;;9.07;;
49592;SDS011;35499;51.482;4.264;2023-12-07T08:34:44;30.48;;;11.30;;
49592;SDS011;35499;51.482;4.264;2023-12-07T08:37:09;33.92;;;12.32;;
49592;SDS011;35499;51.482;4.264;2023-12-07T08:39:35;27.70;;;11.13;;
49592;SDS011;35499;51.482;4.264;2023-12-07T08:42:00;22.77;;;8.30;;
49592;SDS011;35499;51.482;4.264;2023-12-07T08:44:26;30.13;;;10.07;;
49592;SDS011;35499;51.482;4.264;2023-12-07T08:46:51;21.52;;;9.75;;
49592;SDS011;35499;51.482;4.264;2023-12-07T08:49:16;27.53;;;10.30;;
49592;SDS011;35499;51.482;4.264;2023-12-07T08:51:42;27.93;;;10.80;;
49592;SDS011;35499;51.482;4.264;2023-12-07T08:54:07;22.67;;;9.27;;
49592;SDS011;35499;51.482;4.264;2023-12-07T08:56:32;23.23;;;10.63;;
49592;SDS011;35499;51.482;4.264;2023-12-07T08:58:57;20.97;;;8.23;;
49592;SDS011;35499;51.482;4.264;2023-12-07T09:01:23;24.75;;;11.10;;
49592;SDS011;35499;51.482;4.264;2023-12-07T09:03:48;22.13;;;9.23;;
49592;SDS011;35499;51.482;4.264;2023-12-07T09:06:13;9.67;;;5.47;;
49592;SDS011;35499;51.482;4.264;2023-12-07T09:08:39;21.10;;;8.87;;
49592;SDS011;35499;51.482;4.264;2023-12-07T09:11:04;15.17;;;7.00;;
49592;SDS011;35499;51.482;4.264;2023-12-07T09:13:29;24.27;;;9.37;;
49592;SDS011;35499;51.482;4.264;2023-12-07T09:15:54;19.03;;;8.87;;
49592;SDS011;35499;51.482;4.264;2023-12-07T09:18:20;19.37;;;8.33;;
49592;SDS011;35499;51.482;4.264;2023-12-07T09:20:45;16.17;;;7.40;;
49592;SDS011;35499;51.482;4.264;2023-12-07T09:23:14;14.90;;;6.68;;
49592;SDS011;35499;51.482;4.264;2023-12-07T09:25:40;18.30;;;9.20;;
49592;SDS011;35499;51.482;4.264;2023-12-07T09:28:06;13.43;;;7.78;;
49592;SDS011;35499;51.482;4.264;2023-12-07T09:30:31;16.17;;;6.78;;
49592;SDS011;35499;51.482;4.264;2023-12-07T09:32:58;19.02;;;8.85;;
49592;SDS011;35499;51.482;4.264;2023-12-07T09:35:24;15.70;;;5.88;;
49592;SDS011;35499;51.482;4.264;2023-12-07T09:37:50;13.13;;;7.00;;
49592;SDS011;35499;51.482;4.264;2023-12-07T09:40:18;11.23;;;6.78;;
49592;SDS011;35499;51.482;4.264;2023-12-07T09:42:45;13.57;;;6.03;;
49592;SDS011;35499;51.482;4.264;2023-12-07T09:45:11;20.63;;;5.95;;
49592;SDS011;35499;51.482;4.264;2023-12-07T09:47:38;14.05;;;5.97;;
49592;SDS011;35499;51.482;4.264;2023-12-07T09:50:05;14.50;;;6.25;;
49592;SDS011;35499;51.482;4.264;2023-12-07T09:52:32;15.30;;;7.13;;
49592;SDS011;35499;51.482;4.264;2023-12-07T09:54:57;15.27;;;7.27;;
49592;SDS011;35499;51.482;4.264;2023-12-07T09:57:23;19.60;;;6.65;;
49592;SDS011;35499;51.482;4.264;2023-12-07T09:59:48;11.47;;;5.80;;
49592;SDS011;35499;51.482;4.264;2023-12-07T10:04:32;7.38;;;5.07;;
49592;SDS011;35499;51.482;4.264;2023-12-07T10:06:58;12.17;;;5.47;;
49592;SDS011;35499;51.482;4.264;2023-12-07T10:09:23;14.03;;;6.70;;
49592;SDS011;35499;51.482;4.264;2023-12-07T10:11:49;15.50;;;6.78;;
49592;SDS011;35499;51.482;4.264;2023-12-07T10:14:14;16.58;;;7.22;;
49592;SDS011;35499;51.482;4.264;2023-12-07T10:16:53;11.43;;;6.27;;
49592;SDS011;35499;51.482;4.264;2023-12-07T10:19:22;12.38;;;6.03;;
49592;SDS011;35499;51.482;4.264;2023-12-07T10:21:51;14.75;;;7.57;;
49592;SDS011;35499;51.482;4.264;2023-12-07T10:24:20;14.70;;;5.95;;
49592;SDS011;35499;51.482;4.264;2023-12-07T10:26:47;10.75;;;5.47;;
49592;SDS011;35499;51.482;4.264;2023-12-07T10:29:13;14.75;;;6.90;;
49592;SDS011;35499;51.482;4.264;2023-12-07T10:31:39;12.18;;;5.78;;
49592;SDS011;35499;51.482;4.264;2023-12-07T10:34:05;9.07;;;4.93;;
49592;SDS011;35499;51.482;4.264;2023-12-07T10:36:31;13.68;;;7.68;;
49592;SDS011;35499;51.482;4.264;2023-12-07T10:38:57;14.88;;;8.05;;
49592;SDS011;35499;51.482;4.264;2023-12-07T10:41:23;13.90;;;5.68;;
49592;SDS011;35499;51.482;4.264;2023-12-07T10:43:53;10.35;;;5.43;;
49592;SDS011;35499;51.482;4.264;2023-12-07T10:46:24;12.40;;;4.88;;
49592;SDS011;35499;51.482;4.264;2023-12-07T10:48:51;9.32;;;4.32;;
49592;SDS011;35499;51.482;4.264;2023-12-07T10:51:28;9.43;;;4.35;;
49592;SDS011;35499;51.482;4.264;2023-12-07T10:53:59;12.07;;;4.15;;
49592;SDS011;35499;51.482;4.264;2023-12-07T10:56:28;8.65;;;4.72;;
49592;SDS011;35499;51.482;4.264;2023-12-07T10:58:58;7.20;;;4.50;;
49592;SDS011;35499;51.482;4.264;2023-12-07T11:01:24;9.77;;;4.85;;
49592;SDS011;35499;51.482;4.264;2023-12-07T11:03:51;9.93;;;5.45;;
49592;SDS011;35499;51.482;4.264;2023-12-07T11:06:18;8.50;;;4.38;;
49592;SDS011;35499;51.482;4.264;2023-12-07T11:08:51;10.68;;;4.97;;
49592;SDS011;35499;51.482;4.264;2023-12-07T11:14:09;8.40;;;3.97;;
49592;SDS011;35499;51.482;4.264;2023-12-07T11:16:41;11.85;;;5.38;;
49592;SDS011;35499;51.482;4.264;2023-12-07T11:21:55;10.00;;;4.72;;
49592;SDS011;35499;51.482;4.264;2023-12-07T11:24:22;8.98;;;4.63;;
49592;SDS011;35499;51.482;4.264;2023-12-07T11:26:48;11.57;;;5.20;;
49592;SDS011;35499;51.482;4.264;2023-12-07T11:29:19;7.97;;;5.00;;
49592;SDS011;35499;51.482;4.264;2023-12-07T11:31:45;10.80;;;5.38;;
49592;SDS011;35499;51.482;4.264;2023-12-07T11:34:10;10.45;;;5.30;;
49592;SDS011;35499;51.482;4.264;2023-12-07T11:36:38;10.48;;;4.65;;
49592;SDS011;35499;51.482;4.264;2023-12-07T11:41:34;11.15;;;5.30;;
49592;SDS011;35499;51.482;4.264;2023-12-07T11:44:00;7.57;;;4.07;;
49592;SDS011;35499;51.482;4.264;2023-12-07T11:46:25;12.83;;;4.53;;
49592;SDS011;35499;51.482;4.264;2023-12-07T11:48:50;10.07;;;4.80;;
49592;SDS011;35499;51.482;4.264;2023-12-07T11:51:16;10.20;;;4.72;;
49592;SDS011;35499;51.482;4.264;2023-12-07T11:53:43;8.30;;;3.78;;
49592;SDS011;35499;51.482;4.264;2023-12-07T11:56:09;9.75;;;5.75;;
49592;SDS011;35499;51.482;4.264;2023-12-07T11:58:35;7.70;;;3.85;;
49592;SDS011;35499;51.482;4.264;2023-12-07T12:01:01;10.45;;;4.78;;
49592;SDS011;35499;51.482;4.264;2023-12-07T12:03:28;11.63;;;4.55;;
49592;SDS011;35499;51.482;4.264;2023-12-07T12:05:54;6.35;;;2.83;;
49592;SDS011;35499;51.482;4.264;2023-12-07T12:08:20;8.48;;;3.70;;
49592;SDS011;35499;51.482;4.264;2023-12-07T12:10:46;7.25;;;4.32;;
49592;SDS011;35499;51.482;4.264;2023-12-07T12:13:14;12.68;;;5.85;;
49592;SDS011;35499;51.482;4.264;2023-12-07T12:15:40;10.07;;;4.93;;
49592;SDS011;35499;51.482;4.264;2023-12-07T12:18:06;9.77;;;5.22;;
49592;SDS011;35499;51.482;4.264;2023-12-07T12:20:32;14.63;;;5.25;;
49592;SDS011;35499;51.482;4.264;2023-12-07T12:22:57;9.52;;;4.13;;
49592;SDS011;35499;51.482;4.264;2023-12-07T12:25:25;10.25;;;4.90;;
49592;SDS011;35499;51.482;4.264;2023-12-07T12:27:53;11.07;;;5.05;;
49592;SDS011;35499;51.482;4.264;2023-12-07T12:30:20;13.80;;;5.18;;
49592;SDS011;35499;51.482;4.264;2023-12-07T12:32:48;9.73;;;4.15;;
49592;SDS011;35499;51.482;4.264;2023-12-07T12:35:13;13.10;;;5.03;;
49592;SDS011;35499;51.482;4.264;2023-12-07T12:37:40;10.98;;;5.43;;
49592;SDS011;35499;51.482;4.264;2023-12-07T12:40:07;10.25;;;4.18;;
49592;SDS011;35499;51.482;4.264;2023-12-07T12:42:33;11.88;;;4.97;;
49592;SDS011;35499;51.482;4.264;2023-12-07T12:44:59;11.93;;;4.20;;
49592;SDS011;35499;51.482;4.264;2023-12-07T12:47:25;7.20;;;4.47;;
49592;SDS011;35499;51.482;4.264;2023-12-07T12:49:50;5.55;;;3.22;;
49592;SDS011;35499;51.482;4.264;2023-12-07T12:52:16;7.40;;;4.15;;
49592;SDS011;35499;51.482;4.264;2023-12-07T12:54:44;14.13;;;4.97;;
49592;SDS011;35499;51.482;4.264;2023-12-07T12:57:10;9.07;;;4.32;;
49592;SDS011;35499;51.482;4.264;2023-12-07T12:59:36;8.25;;;3.50;;
49592;SDS011;35499;51.482;4.264;2023-12-07T13:02:04;9.20;;;4.07;;
49592;SDS011;35499;51.482;4.264;2023-12-07T13:04:30;5.88;;;2.88;;
49592;SDS011;35499;51.482;4.264;2023-12-07T13:06:55;9.13;;;3.22;;
49592;SDS011;35499;51.482;4.264;2023-12-07T13:09:21;8.73;;;4.03;;
49592;SDS011;35499;51.482;4.264;2023-12-07T13:11:46;9.43;;;5.13;;
49592;SDS011;35499;51.482;4.264;2023-12-07T13:14:12;6.57;;;3.40;;
49592;SDS011;35499;51.482;4.264;2023-12-07T13:16:37;10.13;;;5.22;;
49592;SDS011;35499;51.482;4.264;2023-12-07T13:19:02;8.77;;;4.13;;
49592;SDS011;35499;51.482;4.264;2023-12-07T13:21:28;9.73;;;4.70;;
49592;SDS011;35499;51.482;4.264;2023-12-07T13:23:53;8.47;;;4.13;;
49592;SDS011;35499;51.482;4.264;2023-12-07T13:26:19;9.90;;;4.83;;
49592;SDS011;35499;51.482;4.264;2023-12-07T13:28:45;11.77;;;4.55;;
49592;SDS011;35499;51.482;4.264;2023-12-07T13:31:10;9.80;;;4.27;;
49592;SDS011;35499;51.482;4.264;2023-12-07T13:33:35;11.93;;;4.60;;
49592;SDS011;35499;51.482;4.264;2023-12-07T13:36:01;5.30;;;2.65;;
49592;SDS011;35499;51.482;4.264;2023-12-07T13:38:27;9.75;;;4.05;;
49592;SDS011;35499;51.482;4.264;2023-12-07T13:40:55;8.82;;;4.32;;
49592;SDS011;35499;51.482;4.264;2023-12-07T13:43:21;11.10;;;4.35;;
49592;SDS011;35499;51.482;4.264;2023-12-07T13:45:49;5.82;;;2.70;;
49592;SDS011;35499;51.482;4.264;2023-12-07T13:48:14;6.47;;;3.75;;
49592;SDS011;35499;51.482;4.264;2023-12-07T13:50:40;4.43;;;1.77;;
49592;SDS011;35499;51.482;4.264;2023-12-07T13:53:06;11.10;;;4.28;;
49592;SDS011;35499;51.482;4.264;2023-12-07T13:55:35;9.15;;;3.42;;
49592;SDS011;35499;51.482;4.264;2023-12-07T13:58:04;8.50;;;3.25;;
49592;SDS011;35499;51.482;4.264;2023-12-07T14:00:31;8.48;;;4.13;;
49592;SDS011;35499;51.482;4.264;2023-12-07T14:02:57;6.97;;;4.22;;
49592;SDS011;35499;51.482;4.264;2023-12-07T14:05:22;5.40;;;2.57;;
49592;SDS011;35499;51.482;4.264;2023-12-07T14:07:47;12.13;;;4.78;;
49592;SDS011;35499;51.482;4.264;2023-12-07T14:10:13;10.17;;;3.93;;
49592;SDS011;35499;51.482;4.264;2023-12-07T14:12:38;9.38;;;4.32;;
49592;SDS011;35499;51.482;4.264;2023-12-07T14:15:04;7.40;;;2.67;;
49592;SDS011;35499;51.482;4.264;2023-12-07T14:17:29;6.60;;;2.55;;
49592;SDS011;35499;51.482;4.264;2023-12-07T14:20:02;7.95;;;4.13;;
49592;SDS011;35499;51.482;4.264;2023-12-07T14:22:32;5.90;;;2.55;;
49592;SDS011;35499;51.482;4.264;2023-12-07T14:24:58;9.73;;;3.47;;
49592;SDS011;35499;51.482;4.264;2023-12-07T14:27:26;11.75;;;5.03;;
49592;SDS011;35499;51.482;4.264;2023-12-07T14:29:52;10.43;;;5.03;;
49592;SDS011;35499;51.482;4.264;2023-12-07T14:32:17;9.15;;;4.18;;
49592;SDS011;35499;51.482;4.264;2023-12-07T14:34:43;9.97;;;4.63;;
49592;SDS011;35499;51.482;4.264;2023-12-07T14:37:09;7.68;;;3.42;;
49592;SDS011;35499;51.482;4.264;2023-12-07T14:39:38;8.10;;;3.42;;
49592;SDS011;35499;51.482;4.264;2023-12-07T14:42:04;10.52;;;4.97;;